Time;durP1;ratioP1;P1;durP2;ratioP2;P2;SDS_P1;SDS_P2;PMS_P1;PMS_P2;Temp;Humidity;BMP_temperature;BMP_pressure;BME280_temperature;BME280_humidity;BME280_pressure;Samples;Min_cycle;Max_cycle;Signal;HPM_P1;HPM_P2
2022/10/21 00:02:17;;;;;;;13.18;4.15;;;;;;;9.06;77.35;101558.06;5091694;28;20032;-68
2022/10/21 00:04:43;;;;;;;8.52;4.60;;;;;;;8.37;78.65;101496.34;5092088;28;20020;-68
2022/10/21 00:07:08;;;;;;;11.65;4.72;;;;;;;8.53;79.50;101548.78;5073872;28;20028;-68
2022/10/21 00:09:34;;;;;;;12.02;4.53;;;;;;;8.58;79.31;101552.53;5091656;28;20023;-68
2022/10/21 00:11:59;;;;;;;11.52;5.20;;;;;;;8.75;78.68;101548.44;5091815;28;20089;-67
2022/10/21 00:14:24;;;;;;;13.75;4.97;;;;;;;8.64;77.83;101496.28;5091802;28;20031;-67
2022/10/21 00:16:50;;;;;;;12.75;4.82;;;;;;;8.82;77.97;101537.72;5055968;28;20051;-66
2022/10/21 00:19:15;;;;;;;15.05;5.28;;;;;;;8.88;77.84;101537.19;5073627;28;20059;-67
2022/10/21 00:21:41;;;;;;;13.63;5.20;;;;;;;8.84;77.87;101530.97;5091511;28;20032;-67
2022/10/21 00:24:07;;;;;;;17.35;7.13;;;;;;;9.03;77.09;101537.25;5091853;28;20031;-67
2022/10/21 00:26:32;;;;;;;17.25;7.10;;;;;;;9.10;76.31;101541.97;5091786;28;20518;-67
2022/10/21 00:28:58;;;;;;;15.07;7.18;;;;;;;9.13;75.59;101543.84;5072189;28;20522;-67
2022/10/21 00:31:24;;;;;;;14.43;7.07;;;;;;;9.05;75.55;101535.66;5091542;28;20473;-68
2022/10/21 00:33:50;;;;;;;21.65;7.88;;;;;;;8.81;76.46;101528.22;5091669;28;20039;-67
2022/10/21 00:36:16;;;;;;;17.88;7.45;;;;;;;8.56;77.14;101500.97;5091406;28;20073;-67
2022/10/21 00:38:44;;;;;;;16.35;8.18;;;;;;;8.85;77.10;101537.91;5091745;28;20511;-67
2022/10/21 00:41:10;;;;;;;21.05;8.15;;;;;;;8.81;77.41;101533.38;5091486;28;20144;-68
2022/10/21 00:43:57;;;;;;;15.60;7.25;;;;;;;8.81;77.20;101528.22;5091540;28;20504;-68
2022/10/21 00:46:32;;;;;;;16.65;7.45;;;;;;;8.88;77.14;101538.09;5071898;28;20044;-68
2022/10/21 00:48:59;;;;;;;16.38;7.40;;;;;;;8.92;77.01;101531.44;5090604;28;20023;-68
2022/10/21 00:51:24;;;;;;;15.15;7.55;;;;;;;8.79;77.33;101540.09;5091180;28;20030;-68
2022/10/21 00:53:50;;;;;;;14.10;6.90;;;;;;;8.86;76.96;101525.91;5091017;28;20114;-68
2022/10/21 00:56:23;;;;;;;17.65;7.35;;;;;;;8.97;76.80;101531.72;5090815;28;20028;-68
2022/10/21 00:58:50;;;;;;;17.27;6.90;;;;;;;9.13;76.50;101534.41;5091348;28;20502;-68
2022/10/21 01:01:16;;;;;;;18.33;6.57;;;;;;;9.01;75.59;101487.31;5091054;28;20024;-68
2022/10/21 01:03:42;;;;;;;16.98;7.25;;;;;;;9.35;74.32;101527.97;5091510;28;20066;-68
2022/10/21 01:06:10;;;;;;;17.35;8.15;;;;;;;9.23;74.32;101535.84;5091213;28;20107;-68
2022/10/21 01:08:36;;;;;;;17.15;7.28;;;;;;;9.06;74.22;101507.41;5091295;28;20081;-68
2022/10/21 01:11:02;;;;;;;16.27;7.90;;;;;;;9.01;74.55;101521.69;5091198;28;20028;-68
2022/10/21 01:14:02;;;;;;;15.93;7.40;;;;;;;8.90;74.34;101535.63;5090691;28;20043;-69
2022/10/21 01:16:40;;;;;;;15.77;6.90;;;;;;;8.58;75.48;101524.22;5008811;28;20046;-68
2022/10/21 01:19:08;;;;;;;13.65;6.90;;;;;;;8.68;75.63;101526.56;5008837;28;20080;-68
2022/10/21 01:21:38;;;;;;;15.23;6.82;;;;;;;8.69;76.60;101530.91;5008738;28;20041;-68
2022/10/21 01:24:22;;;;;;;13.20;6.80;;;;;;;8.66;78.67;101529.84;5008629;28;20041;-68
2022/10/21 01:27:04;;;;;;;17.30;6.40;;;;;;;8.68;80.13;101512.81;5008515;28;20193;-68
2022/10/21 01:29:45;;;;;;;29.95;7.82;;;;;;;8.88;79.82;101522.66;5008271;28;20153;-68
2022/10/21 01:32:15;;;;;;;30.33;7.80;;;;;;;8.98;79.14;101520.63;5008702;28;20117;-68
2022/10/21 01:35:09;;;;;;;22.83;7.60;;;;;;;9.07;78.21;101521.16;4991970;28;20496;-68
2022/10/21 01:38:02;;;;;;;27.50;8.10;;;;;;;9.07;76.95;101529.81;5008497;28;20034;-68
2022/10/21 01:40:36;;;;;;;27.20;8.90;;;;;;;8.75;77.83;101489.22;5008523;28;20073;-68
2022/10/21 01:43:39;;;;;;;21.92;8.85;;;;;;;9.07;79.05;101527.22;5008460;28;20034;-68
2022/10/21 01:46:22;;;;;;;22.02;10.23;;;;;;;9.13;78.78;101513.81;4969326;28;20052;-68
2022/10/21 01:48:54;;;;;;;25.45;9.35;;;;;;;9.36;78.59;101534.91;4969401;28;20323;-68
2022/10/21 01:51:25;;;;;;;16.75;9.80;;;;;;;9.23;77.61;101485.22;4969281;28;20461;-68
2022/10/21 01:54:00;;;;;;;20.40;9.85;;;;;;;9.47;77.18;101535.53;5007340;28;20494;-68
2022/10/21 01:56:28;;;;;;;20.38;10.98;;;;;;;9.45;76.67;101527.72;5027967;28;20045;-68
2022/10/21 01:58:54;;;;;;;25.55;10.55;;;;;;;9.49;76.34;101537.38;5028131;28;20037;-68
2022/10/21 02:01:21;;;;;;;23.48;11.82;;;;;;;9.49;76.26;101534.81;5028071;28;20040;-68
2022/10/21 02:03:51;;;;;;;22.60;11.52;;;;;;;9.47;76.06;101536.44;5028053;28;20573;-69
2022/10/21 02:06:17;;;;;;;21.08;11.60;;;;;;;9.41;75.76;101535.16;5028087;28;20164;-70
2022/10/21 02:08:43;;;;;;;21.08;8.65;;;;;;;9.21;74.25;101542.63;5027888;28;20476;-70
2022/10/21 02:11:11;;;;;;;15.93;7.15;;;;;;;8.99;74.29;101535.28;5028055;28;20115;-69
2022/10/21 02:13:43;;;;;;;12.70;6.43;;;;;;;8.46;73.91;101485.75;5027852;28;20037;-69
2022/10/21 02:16:12;;;;;;;16.83;6.07;;;;;;;8.40;74.89;101540.25;5027851;28;20052;-69
2022/10/21 02:18:37;;;;;;;13.03;7.27;;;;;;;8.22;75.03;101541.66;5027940;28;20041;-69
2022/10/21 02:21:07;;;;;;;15.48;5.78;;;;;;;8.12;75.10;101539.31;5027894;28;20041;-69
2022/10/21 02:23:51;;;;;;;14.30;5.93;;;;;;;8.05;75.14;101543.16;5081646;28;20044;-68
2022/10/21 02:26:17;;;;;;;11.55;5.63;;;;;;;7.69;75.83;101539.97;5092781;28;20448;-69
2022/10/21 02:28:42;;;;;;;9.98;5.50;;;;;;;7.46;76.71;101534.19;5094428;28;20035;-69
2022/10/21 02:31:38;;;;;;;12.95;5.45;;;;;;;7.60;76.38;101561.72;5094087;28;20536;-68
2022/10/21 02:34:16;;;;;;;9.95;4.65;;;;;;;7.65;75.81;101567.16;5094024;28;20489;-69
2022/10/21 02:37:02;;;;;;;12.13;5.20;;;;;;;7.65;75.33;101550.84;5094202;28;20035;-68
2022/10/21 02:39:35;;;;;;;9.13;5.05;;;;;;;7.54;75.28;101517.63;5094325;28;20036;-68
2022/10/21 02:42:04;;;;;;;11.07;4.95;;;;;;;7.92;74.78;101565.53;5094428;28;20024;-69
2022/10/21 02:44:30;;;;;;;12.90;4.85;;;;;;;8.02;74.02;101571.25;5094016;28;20032;-69
2022/10/21 02:46:55;;;;;;;11.70;5.43;;;;;;;7.79;73.62;101529.50;5094244;28;20490;-69
2022/10/21 02:49:21;;;;;;;15.43;5.90;;;;;;;7.84;73.52;101540.97;5093953;28;20047;-69
2022/10/21 02:51:46;;;;;;;15.85;6.40;;;;;;;7.75;73.36;101530.09;5093808;28;20934;-69
2022/10/21 02:54:12;;;;;;;13.45;7.38;;;;;;;7.77;73.30;101534.53;5093907;28;20035;-69
2022/10/21 02:56:37;;;;;;;10.07;5.68;;;;;;;8.10;72.72;101570.09;5093929;28;20063;-69
2022/10/21 02:59:02;;;;;;;10.07;6.03;;;;;;;7.87;72.95;101530.00;5093754;28;20115;-69
2022/10/21 03:01:28;;;;;;;10.23;6.00;;;;;;;8.26;72.85;101574.50;5093840;28;20036;-69
2022/10/21 03:03:53;;;;;;;13.07;7.03;;;;;;;8.26;71.90;101585.69;5093709;28;20020;-69
2022/10/21 03:06:19;;;;;;;10.80;5.45;;;;;;;8.14;72.26;101584.91;5075087;28;20039;-69
2022/10/21 03:08:44;;;;;;;12.93;6.45;;;;;;;8.04;72.71;101557.69;5073422;28;20032;-69
2022/10/21 03:11:10;;;;;;;22.15;8.07;;;;;;;8.22;73.53;101578.59;5073056;28;20029;-69
2022/10/21 03:13:35;;;;;;;14.38;8.52;;;;;;;8.07;73.88;101549.28;5073070;28;20521;-69
2022/10/21 03:16:00;;;;;;;21.25;10.18;;;;;;;8.08;74.77;101541.66;5073368;28;20028;-69
2022/10/21 03:18:26;;;;;;;19.25;10.68;;;;;;;8.41;75.68;101587.47;5073059;28;20040;-69
2022/10/21 03:20:52;;;;;;;16.98;9.88;;;;;;;8.47;74.99;101584.44;5072958;28;20061;-69
2022/10/21 03:23:18;;;;;;;20.30;10.70;;;;;;;8.49;74.98;101583.72;5073055;28;20402;-69
2022/10/21 03:25:44;;;;;;;19.02;10.68;;;;;;;8.48;74.76;101586.22;5072937;28;20482;-69
2022/10/21 03:28:09;;;;;;;21.02;11.52;;;;;;;8.25;76.41;101589.06;5037378;28;20044;-69
2022/10/21 03:30:35;;;;;;;18.05;10.70;;;;;;;7.87;77.22;101579.72;5072821;28;20517;-69
2022/10/21 03:33:00;;;;;;;20.92;10.38;;;;;;;7.69;78.34;101592.28;5072783;28;20444;-69
2022/10/21 03:35:26;;;;;;;18.50;7.93;;;;;;;7.52;77.12;101580.84;5072596;28;20406;-69
2022/10/21 03:37:52;;;;;;;15.02;6.82;;;;;;;7.35;76.69;101602.88;5072221;28;20684;-69
2022/10/21 03:40:17;;;;;;;13.25;7.57;;;;;;;7.26;77.43;101603.13;5072942;28;20032;-68
2022/10/21 03:42:43;;;;;;;10.65;6.25;;;;;;;7.12;77.24;101593.56;5073001;28;20035;-69
2022/10/21 03:45:09;;;;;;;15.23;6.50;;;;;;;7.09;77.41;101593.34;5072675;28;20040;-69
2022/10/21 03:47:34;;;;;;;9.20;5.75;;;;;;;6.91;77.80;101575.88;5037316;28;20044;-69
2022/10/21 03:50:00;;;;;;;13.23;6.45;;;;;;;7.11;77.72;101607.19;5072379;28;20028;-69
2022/10/21 03:52:25;;;;;;;12.52;5.57;;;;;;;7.12;77.52;101601.28;5072494;28;20082;-69
2022/10/21 03:54:51;;;;;;;13.50;6.00;;;;;;;7.14;77.28;101604.84;5072602;28;20031;-69
2022/10/21 03:57:16;;;;;;;12.65;5.57;;;;;;;7.04;76.91;101590.47;5072603;28;20028;-69
2022/10/21 03:59:41;;;;;;;21.55;5.55;;;;;;;6.94;77.18;101606.00;5072353;28;20096;-69
2022/10/21 04:02:07;;;;;;;7.90;5.10;;;;;;;6.30;79.88;101606.66;5075141;28;20485;-69
2022/10/21 04:04:32;;;;;;;7.75;5.35;;;;;;;6.35;80.32;101607.00;5076822;28;20628;-69
2022/10/21 04:06:58;;;;;;;9.55;5.25;;;;;;;6.57;79.73;101606.00;5073751;28;20475;-68
2022/10/21 04:09:23;;;;;;;9.65;5.63;;;;;;;6.72;79.20;101606.19;5053948;28;20028;-69
2022/10/21 04:11:49;;;;;;;11.23;5.45;;;;;;;6.70;77.84;101618.00;5086356;28;20028;-69
2022/10/21 04:14:14;;;;;;;12.73;5.18;;;;;;;6.61;77.81;101603.72;5074185;28;20032;-69
2022/10/21 04:16:40;;;;;;;10.10;5.53;;;;;;;6.63;78.42;101604.75;5092130;28;20533;-69
2022/10/21 04:19:05;;;;;;;13.95;6.15;;;;;;;6.69;78.49;101608.53;5092076;28;20043;-69
2022/10/21 04:21:31;;;;;;;14.13;6.65;;;;;;;6.57;78.64;101594.03;5092305;28;20092;-69
2022/10/21 04:23:56;;;;;;;19.65;7.22;;;;;;;6.77;78.90;101615.97;5092517;28;20062;-69
2022/10/21 04:26:21;;;;;;;18.48;8.52;;;;;;;6.76;79.05;101616.75;5091987;28;20108;-69
2022/10/21 04:28:47;;;;;;;18.30;9.00;;;;;;;6.66;77.93;101626.28;5091900;28;20032;-69
2022/10/21 04:31:12;;;;;;;20.65;10.38;;;;;;;6.51;77.51;101632.09;5073553;28;20144;-69
2022/10/21 04:33:38;;;;;;;22.17;11.68;;;;;;;6.57;77.31;101622.25;5091571;28;20111;-69
2022/10/21 04:36:03;;;;;;;21.85;10.57;;;;;;;6.70;77.09;101628.28;5088924;28;20039;-69
2022/10/21 04:38:29;;;;;;;23.45;10.38;;;;;;;6.75;76.66;101634.63;5087104;28;20486;-69
2022/10/21 04:40:59;;;;;;;22.80;9.35;;;;;;;6.73;77.08;101634.53;5091962;28;20085;-69
2022/10/21 04:43:25;;;;;;;;;;;;;;;6.80;76.63;101631.63;5073965;28;20077;-69
2022/10/21 04:45:51;;;;;;;19.33;11.27;;;;;;;6.86;76.44;101631.13;5091489;28;19912;-69
2022/10/21 04:48:16;;;;;;;20.67;10.65;;;;;;;6.73;76.67;101619.13;5091076;28;20029;-69
2022/10/21 04:50:42;;;;;;;22.65;11.25;;;;;;;6.60;76.79;101627.63;5091385;28;20024;-69
2022/10/21 04:53:07;;;;;;;25.20;11.93;;;;;;;6.52;78.18;101641.56;5091986;28;20031;-69
2022/10/21 04:55:32;;;;;;;20.15;10.80;;;;;;;6.46;78.36;101592.38;5091737;28;20040;-69
2022/10/21 04:57:58;;;;;;;24.95;11.25;;;;;;;6.86;78.69;101635.41;5091633;28;20521;-69
2022/10/21 05:00:23;;;;;;;34.28;12.23;;;;;;;6.97;78.04;101637.03;5091515;28;20482;-69
2022/10/21 05:02:49;;;;;;;42.50;12.02;;;;;;;7.10;77.87;101626.84;5091437;28;20060;-69
2022/10/21 05:05:14;;;;;;;24.83;12.13;;;;;;;7.19;78.15;101631.72;5091464;28;20401;-69
2022/10/21 05:07:39;;;;;;;59.30;13.32;;;;;;;7.20;78.90;101637.75;5087618;28;20512;-69
2022/10/21 05:10:05;;;;;;;35.05;12.52;;;;;;;7.24;80.47;101632.94;5078123;28;20548;-69
2022/10/21 05:12:31;;;;;;;34.28;12.07;;;;;;;7.20;81.05;101628.38;5075281;28;20560;-70
2022/10/21 05:14:59;;;;;;;20.98;11.73;;;;;;;7.34;81.51;101636.13;5081435;28;20088;-69
2022/10/21 05:17:24;;;;;;;30.15;11.68;;;;;;;7.44;81.64;101631.72;5081885;28;20047;-69
2022/10/21 05:19:50;;;;;;;25.55;11.20;;;;;;;7.54;81.44;101633.25;5084889;28;20462;-69
2022/10/21 05:22:15;;;;;;;31.23;13.30;;;;;;;7.63;81.87;101633.00;5090269;28;20020;-69
2022/10/21 05:24:41;;;;;;;26.25;11.43;;;;;;;7.70;81.79;101632.63;5090276;28;20024;-69
2022/10/21 05:27:06;;;;;;;23.95;11.73;;;;;;;7.72;81.02;101612.16;5089806;28;20040;-68
2022/10/21 05:29:31;;;;;;;29.60;12.10;;;;;;;7.37;81.09;101595.25;5089759;28;20096;-69
2022/10/21 05:31:57;;;;;;;23.63;11.88;;;;;;;7.57;79.69;101636.03;5089470;28;20034;-69
2022/10/21 05:34:22;;;;;;;25.17;10.52;;;;;;;7.71;78.92;101641.22;5090222;28;20016;-69
2022/10/21 05:36:48;;;;;;;27.27;10.20;;;;;;;7.77;78.88;101642.50;5087755;28;20466;-68
2022/10/21 05:39:13;;;;;;;25.77;10.80;;;;;;;7.81;78.86;101643.59;5089955;28;20032;-68
2022/10/21 05:41:39;;;;;;;22.67;11.48;;;;;;;7.70;78.92;101614.63;5090780;28;20028;-68
2022/10/21 05:44:04;;;;;;;17.00;9.65;;;;;;;7.97;77.60;101652.34;5090531;28;20028;-68
2022/10/21 05:46:30;;;;;;;22.67;11.13;;;;;;;7.78;76.48;101604.84;5090480;28;20038;-68
2022/10/21 05:48:55;;;;;;;24.85;10.13;;;;;;;8.03;76.33;101634.75;5090338;28;20063;-68
2022/10/21 05:51:25;;;;;;;22.58;9.90;;;;;;;7.94;75.73;101611.91;5084328;28;20029;-69
2022/10/21 05:53:54;;;;;;;25.10;10.68;;;;;;;8.31;78.14;101670.00;5079193;28;20044;-69
2022/10/21 05:56:19;;;;;;;24.37;10.33;;;;;;;8.45;77.16;101663.19;5080903;28;20038;-70
2022/10/21 05:58:45;;;;;;;28.08;11.25;;;;;;;8.53;77.26;101665.50;5040810;28;20413;-69
2022/10/21 06:01:11;;;;;;;22.55;10.60;;;;;;;8.42;78.44;101640.72;5069733;28;20082;-69
2022/10/21 06:03:36;;;;;;;22.65;11.00;;;;;;;8.71;81.41;101665.78;5052514;28;20075;-69
2022/10/21 06:06:05;;;;;;;26.63;12.25;;;;;;;8.79;82.79;101660.25;5070316;28;20032;-69
2022/10/21 06:08:33;;;;;;;32.33;12.77;;;;;;;8.88;82.86;101656.56;5070442;28;20032;-68
2022/10/21 06:11:19;;;;;;;29.55;12.27;;;;;;;9.06;82.33;101673.97;5085670;28;20024;-68
2022/10/21 06:13:46;;;;;;;28.25;10.90;;;;;;;9.16;81.92;101662.53;5089474;28;20035;-69
2022/10/21 06:16:12;;;;;;;29.02;12.48;;;;;;;9.03;81.34;101629.97;5090519;28;20398;-69
2022/10/21 06:18:39;;;;;;;30.83;12.48;;;;;;;9.26;81.61;101669.13;5090388;28;20034;-69
2022/10/21 06:21:05;;;;;;;31.80;11.43;;;;;;;9.33;80.83;101676.47;5090487;28;20031;-69
2022/10/21 06:23:33;;;;;;;33.30;10.98;;;;;;;9.43;80.76;101663.31;5090138;28;20059;-69
2022/10/21 06:26:05;;;;;;;33.38;11.82;;;;;;;9.62;80.92;101670.50;5090443;28;20071;-69
2022/10/21 06:28:33;;;;;;;38.03;13.32;;;;;;;9.74;80.08;101667.75;5090263;28;20032;-69
2022/10/21 06:30:59;;;;;;;49.55;12.88;;;;;;;9.88;79.44;101673.72;5089929;28;20056;-69
2022/10/21 06:33:25;;;;;;;34.17;12.30;;;;;;;9.96;79.63;101672.50;5089299;28;20088;-69
2022/10/21 06:35:51;;;;;;;46.78;13.40;;;;;;;10.06;79.36;101666.19;5090321;28;20032;-68
2022/10/21 06:38:17;;;;;;;35.58;12.18;;;;;;;10.19;78.41;101666.13;5090099;28;20036;-68
2022/10/21 06:40:43;;;;;;;48.17;13.35;;;;;;;10.08;78.81;101667.19;5089942;28;20093;-68
2022/10/21 06:43:09;;;;;;;44.03;13.60;;;;;;;10.12;79.11;101663.97;5090092;28;20067;-68
2022/10/21 06:45:34;;;;;;;48.33;12.70;;;;;;;10.26;79.33;101669.91;5071053;28;20071;-68
2022/10/21 06:48:00;;;;;;;38.00;12.63;;;;;;;10.36;79.11;101669.66;5090112;28;20478;-69
2022/10/21 06:50:25;;;;;;;41.38;13.48;;;;;;;10.52;78.24;101674.03;5090160;28;20031;-68
2022/10/21 06:52:51;;;;;;;36.92;13.27;;;;;;;10.68;77.25;101677.47;5089878;28;20028;-69
2022/10/21 06:55:17;;;;;;;40.35;12.95;;;;;;;10.61;77.24;101685.69;5089272;28;20482;-69
2022/10/21 06:57:43;;;;;;;39.90;12.80;;;;;;;10.59;77.67;101672.69;5090199;28;20152;-69
2022/10/21 07:00:09;;;;;;;35.50;13.65;;;;;;;10.79;77.20;101671.22;5089971;28;20072;-68
2022/10/21 07:02:35;;;;;;;32.13;13.50;;;;;;;10.90;75.83;101682.13;5089970;28;20028;-68
2022/10/21 07:05:00;;;;;;;24.98;13.48;;;;;;;10.64;76.36;101680.69;5089891;28;20031;-69
2022/10/21 07:07:26;;;;;;;30.00;13.82;;;;;;;10.59;76.96;101674.38;5089720;28;20478;-69
2022/10/21 07:09:51;;;;;;;42.92;13.95;;;;;;;10.42;77.66;101673.41;5087789;28;20028;-68
2022/10/21 07:12:17;;;;;;;32.85;13.63;;;;;;;10.18;79.82;101673.75;5090673;28;20020;-69
2022/10/21 07:14:43;;;;;;;39.63;13.07;;;;;;;10.19;79.59;101672.94;5093175;28;20492;-69
2022/10/21 07:17:08;;;;;;;36.58;12.80;;;;;;;10.22;79.63;101673.13;5093432;28;20036;-69
2022/10/21 07:19:34;;;;;;;32.78;13.82;;;;;;;10.49;78.90;101671.28;5076761;28;20060;-68
2022/10/21 07:22:00;;;;;;;35.60;13.55;;;;;;;10.77;77.78;101666.78;5073815;28;20028;-69
2022/10/21 07:24:25;;;;;;;34.72;14.00;;;;;;;11.02;76.15;101660.38;5072769;28;20478;-68
2022/10/21 07:26:51;;;;;;;30.08;14.75;;;;;;;11.10;74.52;101634.13;5072959;28;20040;-68
2022/10/21 07:29:16;;;;;;;27.45;13.00;;;;;;;11.52;74.43;101661.28;5072603;28;20047;-68
2022/10/21 07:31:42;;;;;;;26.90;13.30;;;;;;;11.71;73.42;101652.78;5072748;28;20029;-68
2022/10/21 07:34:08;;;;;;;33.05;12.73;;;;;;;11.78;72.70;101637.63;5072884;28;20040;-69
2022/10/21 07:36:37;;;;;;;35.03;13.75;;;;;;;12.11;72.00;101666.06;5072555;28;20028;-69
2022/10/21 07:39:08;;;;;;;27.02;12.95;;;;;;;12.10;71.97;101668.56;5037343;28;20044;-69
2022/10/21 07:41:37;;;;;;;30.42;12.98;;;;;;;12.10;71.60;101674.63;5072523;28;20397;-68
2022/10/21 07:44:04;;;;;;;38.33;13.93;;;;;;;12.25;71.39;101668.44;5072498;28;20502;-68
2022/10/21 07:46:30;;;;;;;38.28;11.77;;;;;;;12.31;70.54;101663.56;5072383;28;20401;-69
2022/10/21 07:48:55;;;;;;;30.35;13.25;;;;;;;12.46;69.83;101676.34;5072421;28;20029;-68
2022/10/21 07:51:23;;;;;;;27.30;13.50;;;;;;;12.55;69.89;101665.59;5072543;28;20021;-68
2022/10/21 07:53:50;;;;;;;26.48;13.20;;;;;;;12.73;69.67;101666.44;5072172;28;20036;-68
2022/10/21 07:56:22;;;;;;;30.00;11.85;;;;;;;12.81;69.17;101671.09;5072633;28;20029;-68
2022/10/21 07:58:49;;;;;;;25.88;13.00;;;;;;;12.73;68.66;101629.28;5072420;28;20564;-68
2022/10/21 08:01:16;;;;;;;25.83;13.13;;;;;;;13.02;68.17;101659.16;5072377;28;20028;-68
2022/10/21 08:03:42;;;;;;;29.48;11.93;;;;;;;13.16;68.90;101656.28;5049776;28;20613;-68
2022/10/21 08:06:09;;;;;;;34.22;13.13;;;;;;;13.07;67.26;101623.06;5049794;28;20116;-69
2022/10/21 08:08:35;;;;;;;32.30;12.60;;;;;;;13.38;67.59;101658.19;5049508;28;20525;-69
2022/10/21 08:11:02;;;;;;;24.50;12.98;;;;;;;13.53;67.08;101656.28;5049780;28;20044;-69
2022/10/21 08:13:30;;;;;;;31.55;14.25;;;;;;;13.66;66.10;101647.31;5049484;28;20083;-68
2022/10/21 08:15:55;;;;;;;28.17;13.40;;;;;;;13.71;65.56;101652.72;5049430;28;20033;-68
2022/10/21 08:18:21;;;;;;;32.53;12.70;;;;;;;13.74;65.11;101645.94;5049488;28;20536;-69
2022/10/21 08:20:47;;;;;;;29.30;12.30;;;;;;;13.83;65.01;101648.03;5049218;28;20029;-69
2022/10/21 08:23:15;;;;;;;30.08;12.73;;;;;;;13.91;65.65;101646.63;5049427;28;20402;-68
2022/10/21 08:25:51;;;;;;;30.77;12.43;;;;;;;14.09;64.71;101648.22;5045090;28;20037;-69
2022/10/21 08:28:18;;;;;;;28.77;11.35;;;;;;;14.05;65.85;101636.81;5029142;28;20037;-68
2022/10/21 08:30:44;;;;;;;26.75;10.43;;;;;;;14.05;66.68;101638.56;5029203;28;20131;-68
2022/10/21 08:33:10;;;;;;;27.42;10.18;;;;;;;14.03;65.78;101616.81;5029274;28;20029;-69
2022/10/21 08:35:37;;;;;;;33.83;10.02;;;;;;;14.19;64.38;101641.72;5066245;28;20127;-68
2022/10/21 08:38:03;;;;;;;25.27;10.40;;;;;;;14.30;65.74;101637.84;5071741;28;20083;-69
2022/10/21 08:40:35;;;;;;;20.38;8.02;;;;;;;14.28;64.45;101607.44;5087421;28;20462;-69
2022/10/21 08:43:18;;;;;;;21.00;7.38;;;;;;;14.59;64.76;101634.63;5091514;28;20036;-68
2022/10/21 08:45:50;;;;;;;17.65;7.30;;;;;;;14.66;63.28;101636.69;5091543;28;20032;-69
2022/10/21 08:48:20;;;;;;;15.88;6.93;;;;;;;14.74;64.11;101637.84;5091722;28;20023;-69
2022/10/21 08:50:49;;;;;;;18.52;7.00;;;;;;;14.87;64.42;101626.22;5091768;28;20028;-69
2022/10/21 08:53:29;;;;;;;21.52;7.03;;;;;;;14.98;62.00;101630.09;5091492;28;20035;-69
2022/10/21 08:56:01;;;;;;;;;;;;;;;15.05;63.10;101628.63;5091941;28;20042;-69
2022/10/21 08:58:26;;;;;;;11.98;5.53;;;;;;;14.88;60.04;101617.59;5091287;28;19962;-69
2022/10/21 09:01:01;;;;;;;15.55;5.05;;;;;;;14.97;58.58;101623.13;5090014;28;20067;-68
2022/10/21 09:03:58;;;;;;;15.60;4.70;;;;;;;14.86;58.58;101620.13;5081895;28;20027;-68
2022/10/21 09:06:49;;;;;;;17.23;4.93;;;;;;;15.19;56.91;101619.63;5046154;28;20042;-68
2022/10/21 09:09:45;;;;;;;13.77;4.50;;;;;;;15.37;56.15;101623.72;4989235;28;20046;-68
2022/10/21 09:12:20;;;;;;;12.50;4.38;;;;;;;15.56;55.66;101617.44;4989424;28;20026;-68
2022/10/21 09:15:16;;;;;;;15.80;4.63;;;;;;;15.65;54.41;101607.34;4989231;28;20046;-68
2022/10/21 09:18:04;;;;;;;16.38;4.45;;;;;;;15.61;55.72;101601.97;4989307;28;20026;-68
2022/10/21 09:20:30;;;;;;;11.38;4.18;;;;;;;15.71;55.43;101606.66;4989225;28;20102;-68
2022/10/21 09:23:19;;;;;;;14.15;4.57;;;;;;;15.69;55.01;101610.94;4989321;28;20513;-69
2022/10/21 09:25:55;;;;;;;14.25;5.07;;;;;;;15.93;54.18;101600.50;4989223;28;20038;-68
2022/10/21 09:28:24;;;;;;;17.67;4.53;;;;;;;15.85;54.28;101604.59;4988933;28;20038;-68
2022/10/21 09:30:50;;;;;;;16.57;5.80;;;;;;;15.73;54.98;101599.78;5004613;28;20049;-69
2022/10/21 09:33:24;;;;;;;13.82;4.70;;;;;;;15.92;55.72;101603.94;5004806;28;20038;-69
2022/10/21 09:35:55;;;;;;;10.80;3.72;;;;;;;15.91;54.24;101568.28;5006869;28;20092;-69
2022/10/21 09:38:51;;;;;;;8.98;3.85;;;;;;;16.28;52.73;101590.31;5004993;28;20105;-68
2022/10/21 09:41:23;;;;;;;8.45;3.00;;;;;;;16.50;50.65;101581.44;4968796;28;20117;-68
2022/10/21 09:43:49;;;;;;;12.70;3.85;;;;;;;16.31;51.07;101540.91;4981486;28;20056;-68
2022/10/21 09:46:15;;;;;;;14.95;4.63;;;;;;;16.66;51.67;101576.72;4982472;28;20077;-68
2022/10/21 09:48:45;;;;;;;9.55;3.38;;;;;;;16.66;49.72;101569.75;5007984;28;20034;-67
2022/10/21 09:51:18;;;;;;;29.23;19.55;;;;;;;16.85;48.91;101564.19;5008000;28;20146;-68
2022/10/21 09:53:43;;;;;;;11.77;6.80;;;;;;;16.89;50.16;101560.84;4991437;28;20026;-68
2022/10/21 09:56:15;;;;;;;10.77;4.90;;;;;;;16.84;50.20;101526.81;5007507;28;20065;-68
2022/10/21 09:58:48;;;;;;;11.82;4.22;;;;;;;17.21;50.49;101563.47;4975245;28;20082;-68
2022/10/21 10:01:23;;;;;;;11.32;3.88;;;;;;;16.91;48.94;101518.34;5006880;28;20026;-69
2022/10/21 10:03:52;;;;;;;15.05;4.35;;;;;;;17.35;49.42;101554.31;5007134;28;20030;-69
2022/10/21 10:06:47;;;;;;;12.27;3.78;;;;;;;17.48;50.76;101547.66;5007612;28;20048;-66
2022/10/21 10:09:14;;;;;;;6.88;3.25;;;;;;;17.54;50.26;101545.22;4968203;28;20074;-66
2022/10/21 10:11:50;;;;;;;11.00;3.10;;;;;;;17.68;47.98;101550.78;4968910;28;20038;-67
2022/10/21 10:14:25;;;;;;;11.27;3.28;;;;;;;17.82;46.85;101531.97;4968260;28;20051;-66
2022/10/21 10:16:51;;;;;;;8.93;2.80;;;;;;;17.95;46.38;101534.94;4968679;28;20074;-67
2022/10/21 10:19:18;;;;;;;8.32;3.05;;;;;;;18.07;46.47;101539.56;5003549;28;20099;-66
2022/10/21 10:21:44;;;;;;;6.85;2.78;;;;;;;18.04;47.71;101529.03;5007411;28;20030;-67
2022/10/21 10:24:18;;;;;;;8.65;3.50;;;;;;;18.10;47.37;101528.31;5007756;28;20079;-66
2022/10/21 10:26:45;;;;;;;8.25;3.22;;;;;;;18.09;46.02;101516.09;5007900;28;20407;-66
2022/10/21 10:29:13;;;;;;;8.80;3.15;;;;;;;17.99;46.88;101488.84;5007173;28;20096;-67
2022/10/21 10:31:48;;;;;;;6.78;2.95;;;;;;;18.24;46.38;101523.38;5007529;28;20021;-67
2022/10/21 10:34:20;;;;;;;11.13;3.45;;;;;;;18.41;44.99;101518.53;5015412;28;20190;-67
2022/10/21 10:36:48;;;;;;;9.18;3.25;;;;;;;18.42;46.44;101515.09;5022898;28;20048;-67
2022/10/21 10:39:25;;;;;;;5.82;3.15;;;;;;;18.33;45.77;101478.28;5026731;28;20048;-68
2022/10/21 10:41:51;;;;;;;8.57;2.72;;;;;;;18.58;45.81;101498.84;5026819;28;20033;-68
2022/10/21 10:44:33;;;;;;;7.95;3.40;;;;;;;18.76;44.25;101500.06;5026406;28;20408;-68
2022/10/21 10:47:01;;;;;;;6.90;3.00;;;;;;;18.83;45.36;101507.19;5069773;28;20033;-68
2022/10/21 10:49:35;;;;;;;7.82;3.15;;;;;;;18.92;43.44;101504.78;5072852;28;20017;-68
2022/10/21 10:52:04;;;;;;;12.23;3.65;;;;;;;18.91;44.11;101499.53;5077871;28;20090;-68
2022/10/21 10:54:30;;;;;;;8.65;3.65;;;;;;;18.89;44.58;101495.94;5074540;28;20031;-67
2022/10/21 10:57:01;;;;;;;6.32;3.35;;;;;;;18.90;44.00;101490.81;5072341;28;20025;-68
2022/10/21 10:59:54;;;;;;;6.40;3.13;;;;;;;18.89;44.78;101491.63;5072836;28;20026;-67
2022/10/21 11:02:44;;;;;;;10.77;3.38;;;;;;;18.96;44.00;101489.16;5072552;28;20036;-67
2022/10/21 11:05:19;;;;;;;7.68;3.50;;;;;;;18.81;46.22;101455.69;5072188;28;20078;-67
2022/10/21 11:07:54;;;;;;;8.15;3.40;;;;;;;19.01;44.62;101477.91;5072777;28;20026;-67
2022/10/21 11:10:52;;;;;;;8.98;3.38;;;;;;;18.86;43.55;101481.06;5072174;28;20032;-68
2022/10/21 11:13:20;;;;;;;8.65;3.72;;;;;;;19.00;43.80;101477.88;5009823;28;20090;-67
2022/10/21 11:16:00;;;;;;;10.70;3.42;;;;;;;19.20;43.65;101467.75;5009743;28;20041;-68
2022/10/21 11:18:36;;;;;;;7.97;3.35;;;;;;;19.32;43.28;101467.09;5010455;28;20093;-68
2022/10/21 11:21:20;;;;;;;8.48;3.53;;;;;;;19.39;42.87;101466.34;5010505;28;20140;-68
2022/10/21 11:24:23;;;;;;;7.95;3.60;;;;;;;19.41;43.29;101459.38;5010190;28;20604;-68
2022/10/21 11:27:10;;;;;;;7.32;3.63;;;;;;;19.40;42.34;101457.63;5008503;28;20068;-68
2022/10/21 11:29:47;;;;;;;9.73;3.13;;;;;;;19.50;43.83;101458.66;5001531;28;20062;-68
2022/10/21 11:33:10;;;;;;;4.90;2.97;;;;;;;19.46;41.86;101457.72;5008005;28;20066;-68